sensor_id;sensor_type;location;lat;lon;timestamp;temperature;humidity
18454;DHT22;9356;52.202;20.950;2022-11-20T00:01:06;-2.20;94.70
18454;DHT22;9356;52.202;20.950;2022-11-20T00:02:10;-2.30;94.90
18454;DHT22;9356;52.202;20.950;2022-11-20T00:03:13;-2.40;94.60
18454;DHT22;9356;52.202;20.950;2022-11-20T00:04:16;-2.40;94.70
18454;DHT22;9356;52.202;20.950;2022-11-20T00:05:20;-2.40;94.70
18454;DHT22;9356;52.202;20.950;2022-11-20T00:06:23;-2.40;94.90
18454;DHT22;9356;52.202;20.950;2022-11-20T00:07:27;-2.40;95.10
18454;DHT22;9356;52.202;20.950;2022-11-20T00:08:29;-2.40;94.90
18454;DHT22;9356;52.202;20.950;2022-11-20T00:09:32;-2.40;95.10
18454;DHT22;9356;52.202;20.950;2022-11-20T00:10:36;-2.30;95.10
18454;DHT22;9356;52.202;20.950;2022-11-20T00:11:40;-2.40;95.00
18454;DHT22;9356;52.202;20.950;2022-11-20T00:12:42;-2.40;94.80
18454;DHT22;9356;52.202;20.950;2022-11-20T00:13:48;-2.40;94.90
18454;DHT22;9356;52.202;20.950;2022-11-20T00:14:51;-2.40;95.00
18454;DHT22;9356;52.202;20.950;2022-11-20T00:15:57;-2.50;95.00
18454;DHT22;9356;52.202;20.950;2022-11-20T00:17:01;-2.50;95.00
18454;DHT22;9356;52.202;20.950;2022-11-20T00:18:05;-2.50;95.20
18454;DHT22;9356;52.202;20.950;2022-11-20T00:19:07;-2.60;95.30
18454;DHT22;9356;52.202;20.950;2022-11-20T00:20:11;-2.30;95.50
18454;DHT22;9356;52.202;20.950;2022-11-20T00:21:16;-4.90;94.60
18454;DHT22;9356;52.202;20.950;2022-11-20T00:22:22;-2.90;95.30
18454;DHT22;9356;52.202;20.950;2022-11-20T00:23:25;-4.40;95.00
18454;DHT22;9356;52.202;20.950;2022-11-20T00:24:28;-1.30;95.90
18454;DHT22;9356;52.202;20.950;2022-11-20T00:25:31;-2.60;95.50
18454;DHT22;9356;52.202;20.950;2022-11-20T00:26:36;-2.60;95.50
18454;DHT22;9356;52.202;20.950;2022-11-20T00:27:39;-2.70;95.50
18454;DHT22;9356;52.202;20.950;2022-11-20T00:28:44;-2.60;95.70
18454;DHT22;9356;52.202;20.950;2022-11-20T00:29:50;-2.60;95.80
18454;DHT22;9356;52.202;20.950;2022-11-20T00:31:01;-2.60;95.60
18454;DHT22;9356;52.202;20.950;2022-11-20T00:32:07;-2.60;95.70
18454;DHT22;9356;52.202;20.950;2022-11-20T00:33:10;-2.60;95.80
18454;DHT22;9356;52.202;20.950;2022-11-20T00:34:13;-2.50;95.80
18454;DHT22;9356;52.202;20.950;2022-11-20T00:35:17;-2.50;95.80
18454;DHT22;9356;52.202;20.950;2022-11-20T00:36:21;-0.20;96.50
18454;DHT22;9356;52.202;20.950;2022-11-20T00:37:26;-0.30;96.50
18454;DHT22;9356;52.202;20.950;2022-11-20T00:38:28;-1.30;96.10
18454;DHT22;9356;52.202;20.950;2022-11-20T00:39:32;-2.00;95.80
18454;DHT22;9356;52.202;20.950;2022-11-20T00:40:35;-2.40;95.70
18454;DHT22;9356;52.202;20.950;2022-11-20T00:41:38;-2.40;95.70
18454;DHT22;9356;52.202;20.950;2022-11-20T00:42:41;-2.30;95.60
18454;DHT22;9356;52.202;20.950;2022-11-20T00:43:44;-4.40;94.90
18454;DHT22;9356;52.202;20.950;2022-11-20T00:44:47;-2.40;95.30
18454;DHT22;9356;52.202;20.950;2022-11-20T00:45:51;-2.40;95.40
18454;DHT22;9356;52.202;20.950;2022-11-20T00:46:59;-2.40;95.50
18454;DHT22;9356;52.202;20.950;2022-11-20T00:48:03;-2.30;95.50
18454;DHT22;9356;52.202;20.950;2022-11-20T00:49:06;-3.70;95.10
18454;DHT22;9356;52.202;20.950;2022-11-20T00:50:09;-2.40;95.60
18454;DHT22;9356;52.202;20.950;2022-11-20T00:51:15;-2.40;95.60
18454;DHT22;9356;52.202;20.950;2022-11-20T00:52:20;-2.40;95.50
18454;DHT22;9356;52.202;20.950;2022-11-20T00:53:27;-2.40;95.60
18454;DHT22;9356;52.202;20.950;2022-11-20T00:54:29;-2.30;95.70
18454;DHT22;9356;52.202;20.950;2022-11-20T00:55:34;-2.30;95.50
18454;DHT22;9356;52.202;20.950;2022-11-20T00:56:36;-2.50;95.60
18454;DHT22;9356;52.202;20.950;2022-11-20T00:57:39;-2.40;95.80
18454;DHT22;9356;52.202;20.950;2022-11-20T00:58:44;-2.50;95.70
18454;DHT22;9356;52.202;20.950;2022-11-20T00:59:48;-2.50;95.60
18454;DHT22;9356;52.202;20.950;2022-11-20T01:00:51;-2.50;95.90
18454;DHT22;9356;52.202;20.950;2022-11-20T01:01:54;-2.40;95.70
18454;DHT22;9356;52.202;20.950;2022-11-20T01:02:57;-2.50;95.60
18454;DHT22;9356;52.202;20.950;2022-11-20T01:04:02;-2.50;95.70
18454;DHT22;9356;52.202;20.950;2022-11-20T01:05:05;-2.60;95.50
18454;DHT22;9356;52.202;20.950;2022-11-20T01:06:11;-2.60;95.60
18454;DHT22;9356;52.202;20.950;2022-11-20T01:07:15;-2.60;95.80
18454;DHT22;9356;52.202;20.950;2022-11-20T01:08:18;-2.60;95.70
18454;DHT22;9356;52.202;20.950;2022-11-20T01:09:21;-2.60;95.70
18454;DHT22;9356;52.202;20.950;2022-11-20T01:10:24;-2.60;95.80
18454;DHT22;9356;52.202;20.950;2022-11-20T01:11:31;-2.60;95.90
18454;DHT22;9356;52.202;20.950;2022-11-20T01:12:36;-1.40;96.10
18454;DHT22;9356;52.202;20.950;2022-11-20T01:13:40;-2.60;96.10
18454;DHT22;9356;52.202;20.950;2022-11-20T01:14:44;-2.20;95.90
18454;DHT22;9356;52.202;20.950;2022-11-20T01:15:46;-2.60;96.00
18454;DHT22;9356;52.202;20.950;2022-11-20T01:16:51;-2.70;95.90
18454;DHT22;9356;52.202;20.950;2022-11-20T01:17:53;-2.70;95.90
18454;DHT22;9356;52.202;20.950;2022-11-20T01:18:59;-2.80;95.90
18454;DHT22;9356;52.202;20.950;2022-11-20T01:20:04;-2.80;95.90
18454;DHT22;9356;52.202;20.950;2022-11-20T01:21:10;-2.80;96.00
18454;DHT22;9356;52.202;20.950;2022-11-20T01:22:13;-2.80;96.00
18454;DHT22;9356;52.202;20.950;2022-11-20T01:23:16;-2.80;96.00
18454;DHT22;9356;52.202;20.950;2022-11-20T01:24:21;-2.80;96.10
18454;DHT22;9356;52.202;20.950;2022-11-20T01:25:25;-2.80;96.10
18454;DHT22;9356;52.202;20.950;2022-11-20T01:26:29;-2.70;96.10
18454;DHT22;9356;52.202;20.950;2022-11-20T01:27:33;-3.60;96.00
18454;DHT22;9356;52.202;20.950;2022-11-20T01:28:36;-2.80;96.40
18454;DHT22;9356;52.202;20.950;2022-11-20T01:29:40;-2.80;96.30
18454;DHT22;9356;52.202;20.950;2022-11-20T01:30:42;-2.90;96.30
18454;DHT22;9356;52.202;20.950;2022-11-20T01:31:46;-1.80;96.60
18454;DHT22;9356;52.202;20.950;2022-11-20T01:32:49;-3.00;96.50
18454;DHT22;9356;52.202;20.950;2022-11-20T01:33:54;-2.80;96.80
18454;DHT22;9356;52.202;20.950;2022-11-20T01:34:58;-2.90;96.70
18454;DHT22;9356;52.202;20.950;2022-11-20T01:36:06;-1.40;97.20
18454;DHT22;9356;52.202;20.950;2022-11-20T01:37:09;-2.80;96.80
18454;DHT22;9356;52.202;20.950;2022-11-20T01:38:13;-2.80;96.40
18454;DHT22;9356;52.202;20.950;2022-11-20T01:39:18;-2.80;96.40
18454;DHT22;9356;52.202;20.950;2022-11-20T01:40:23;-2.70;96.50
18454;DHT22;9356;52.202;20.950;2022-11-20T01:41:27;-2.70;96.40
18454;DHT22;9356;52.202;20.950;2022-11-20T01:43:01;-0.40;97.10
18454;DHT22;9356;52.202;20.950;2022-11-20T01:44:44;-2.60;96.40
18454;DHT22;9356;52.202;20.950;2022-11-20T01:46:13;-2.60;96.10
18454;DHT22;9356;52.202;20.950;2022-11-20T01:47:21;-2.70;96.10
18454;DHT22;9356;52.202;20.950;2022-11-20T01:48:32;-2.70;96.00
18454;DHT22;9356;52.202;20.950;2022-11-20T01:49:42;-2.70;96.10
18454;DHT22;9356;52.202;20.950;2022-11-20T01:50:49;-2.80;96.30
18454;DHT22;9356;52.202;20.950;2022-11-20T01:51:58;-2.80;96.50
18454;DHT22;9356;52.202;20.950;2022-11-20T01:53:07;-2.80;96.60
18454;DHT22;9356;52.202;20.950;2022-11-20T01:54:17;-2.80;96.60
18454;DHT22;9356;52.202;20.950;2022-11-20T01:55:26;-2.80;96.30
18454;DHT22;9356;52.202;20.950;2022-11-20T01:56:36;-2.70;96.30
18454;DHT22;9356;52.202;20.950;2022-11-20T01:57:41;-1.80;96.60
18454;DHT22;9356;52.202;20.950;2022-11-20T01:58:48;-2.80;96.30
18454;DHT22;9356;52.202;20.950;2022-11-20T01:59:59;-2.80;96.30
18454;DHT22;9356;52.202;20.950;2022-11-20T02:01:03;-2.70;96.50
18454;DHT22;9356;52.202;20.950;2022-11-20T02:02:09;-2.80;96.50
18454;DHT22;9356;52.202;20.950;2022-11-20T02:03:16;-2.70;96.70
18454;DHT22;9356;52.202;20.950;2022-11-20T02:04:21;-2.60;96.70
18454;DHT22;9356;52.202;20.950;2022-11-20T02:05:31;-2.50;96.70
18454;DHT22;9356;52.202;20.950;2022-11-20T02:06:42;-2.50;96.40
18454;DHT22;9356;52.202;20.950;2022-11-20T02:07:50;-2.40;96.10
18454;DHT22;9356;52.202;20.950;2022-11-20T02:08:54;-2.40;96.10
18454;DHT22;9356;52.202;20.950;2022-11-20T02:09:57;-2.40;95.90
18454;DHT22;9356;52.202;20.950;2022-11-20T02:11:00;0.10;96.80
18454;DHT22;9356;52.202;20.950;2022-11-20T02:12:04;-2.50;95.90
18454;DHT22;9356;52.202;20.950;2022-11-20T02:13:28;-0.40;96.50
18454;DHT22;9356;52.202;20.950;2022-11-20T02:14:45;-2.40;96.00
18454;DHT22;9356;52.202;20.950;2022-11-20T02:15:49;-2.50;95.90
18454;DHT22;9356;52.202;20.950;2022-11-20T02:16:52;-2.40;95.90
18454;DHT22;9356;52.202;20.950;2022-11-20T02:18:00;-2.50;96.00
18454;DHT22;9356;52.202;20.950;2022-11-20T02:19:06;-2.40;96.30
18454;DHT22;9356;52.202;20.950;2022-11-20T02:20:12;-2.50;96.30
18454;DHT22;9356;52.202;20.950;2022-11-20T02:21:28;-2.40;96.50
18454;DHT22;9356;52.202;20.950;2022-11-20T02:22:41;-2.30;96.40
18454;DHT22;9356;52.202;20.950;2022-11-20T02:24:11;-2.20;96.30
18454;DHT22;9356;52.202;20.950;2022-11-20T02:25:17;-2.30;96.40
18454;DHT22;9356;52.202;20.950;2022-11-20T02:26:23;-2.30;96.30
18454;DHT22;9356;52.202;20.950;2022-11-20T02:27:27;-2.20;96.20
18454;DHT22;9356;52.202;20.950;2022-11-20T02:28:31;-2.20;96.10
18454;DHT22;9356;52.202;20.950;2022-11-20T02:29:39;-2.20;96.10
18454;DHT22;9356;52.202;20.950;2022-11-20T02:30:45;-2.20;96.20
18454;DHT22;9356;52.202;20.950;2022-11-20T02:31:47;-2.10;96.30
18454;DHT22;9356;52.202;20.950;2022-11-20T02:32:51;-1.10;96.60
18454;DHT22;9356;52.202;20.950;2022-11-20T02:33:57;-2.20;96.20
18454;DHT22;9356;52.202;20.950;2022-11-20T02:35:07;-2.10;96.20
18454;DHT22;9356;52.202;20.950;2022-11-20T02:36:15;-2.10;96.20
18454;DHT22;9356;52.202;20.950;2022-11-20T02:37:21;-2.10;96.20
18454;DHT22;9356;52.202;20.950;2022-11-20T02:38:24;-2.10;96.20
18454;DHT22;9356;52.202;20.950;2022-11-20T02:39:29;-2.10;96.20
18454;DHT22;9356;52.202;20.950;2022-11-20T02:40:32;-4.20;95.60
18454;DHT22;9356;52.202;20.950;2022-11-20T02:41:37;-1.90;96.40
18454;DHT22;9356;52.202;20.950;2022-11-20T02:42:39;-2.00;96.30
18454;DHT22;9356;52.202;20.950;2022-11-20T02:43:43;-2.00;96.30
18454;DHT22;9356;52.202;20.950;2022-11-20T02:44:47;-2.00;96.50
18454;DHT22;9356;52.202;20.950;2022-11-20T02:45:53;-2.10;96.50
18454;DHT22;9356;52.202;20.950;2022-11-20T02:46:57;-2.00;96.50
18454;DHT22;9356;52.202;20.950;2022-11-20T02:48:00;-2.10;96.50
18454;DHT22;9356;52.202;20.950;2022-11-20T02:49:03;-2.00;96.60
18454;DHT22;9356;52.202;20.950;2022-11-20T02:50:07;-2.00;96.50
18454;DHT22;9356;52.202;20.950;2022-11-20T02:51:10;-1.90;96.50
18454;DHT22;9356;52.202;20.950;2022-11-20T02:52:14;-1.90;96.50
18454;DHT22;9356;52.202;20.950;2022-11-20T02:53:16;-1.90;96.40
18454;DHT22;9356;52.202;20.950;2022-11-20T02:54:20;-1.80;96.40
18454;DHT22;9356;52.202;20.950;2022-11-20T02:55:24;-1.80;96.30
18454;DHT22;9356;52.202;20.950;2022-11-20T02:56:30;-1.80;96.20
18454;DHT22;9356;52.202;20.950;2022-11-20T02:57:33;-1.80;96.20
18454;DHT22;9356;52.202;20.950;2022-11-20T02:58:37;-1.80;96.20
18454;DHT22;9356;52.202;20.950;2022-11-20T02:59:39;-1.80;96.20
18454;DHT22;9356;52.202;20.950;2022-11-20T03:00:43;-1.70;96.20
18454;DHT22;9356;52.202;20.950;2022-11-20T03:01:48;-1.70;96.00
18454;DHT22;9356;52.202;20.950;2022-11-20T03:02:52;-1.70;95.90
18454;DHT22;9356;52.202;20.950;2022-11-20T03:03:54;-1.70;96.00
18454;DHT22;9356;52.202;20.950;2022-11-20T03:04:58;-1.70;96.00
18454;DHT22;9356;52.202;20.950;2022-11-20T03:06:03;-0.10;96.50
18454;DHT22;9356;52.202;20.950;2022-11-20T03:07:07;-1.80;95.90
18454;DHT22;9356;52.202;20.950;2022-11-20T03:08:12;-1.80;95.80
18454;DHT22;9356;52.202;20.950;2022-11-20T03:09:14;-1.70;96.00
18454;DHT22;9356;52.202;20.950;2022-11-20T03:10:17;-1.70;96.00
18454;DHT22;9356;52.202;20.950;2022-11-20T03:11:21;-3.20;95.90
18454;DHT22;9356;52.202;20.950;2022-11-20T03:12:25;-1.80;96.00
18454;DHT22;9356;52.202;20.950;2022-11-20T03:13:27;-1.80;96.30
18454;DHT22;9356;52.202;20.950;2022-11-20T03:14:31;-2.10;96.00
18454;DHT22;9356;52.202;20.950;2022-11-20T03:15:33;-1.00;96.30
18454;DHT22;9356;52.202;20.950;2022-11-20T03:16:38;-1.90;96.00
18454;DHT22;9356;52.202;20.950;2022-11-20T03:17:41;-1.90;96.10
18454;DHT22;9356;52.202;20.950;2022-11-20T03:18:47;-1.90;96.10
18454;DHT22;9356;52.202;20.950;2022-11-20T03:19:49;-1.90;96.20
18454;DHT22;9356;52.202;20.950;2022-11-20T03:20:57;-1.90;96.10
18454;DHT22;9356;52.202;20.950;2022-11-20T03:22:00;-2.00;96.10
18454;DHT22;9356;52.202;20.950;2022-11-20T03:23:04;-2.10;96.10
18454;DHT22;9356;52.202;20.950;2022-11-20T03:24:07;-2.10;96.30
18454;DHT22;9356;52.202;20.950;2022-11-20T03:25:10;-2.10;96.40
18454;DHT22;9356;52.202;20.950;2022-11-20T03:26:16;-2.10;96.60
18454;DHT22;9356;52.202;20.950;2022-11-20T03:27:22;-2.10;96.70
18454;DHT22;9356;52.202;20.950;2022-11-20T03:28:24;-2.00;96.80
18454;DHT22;9356;52.202;20.950;2022-11-20T03:29:28;-3.40;96.30
18454;DHT22;9356;52.202;20.950;2022-11-20T03:30:30;-2.10;96.60
18454;DHT22;9356;52.202;20.950;2022-11-20T03:31:36;-2.10;96.50
18454;DHT22;9356;52.202;20.950;2022-11-20T03:32:39;-1.70;96.70
18454;DHT22;9356;52.202;20.950;2022-11-20T03:33:44;-2.20;96.60
18454;DHT22;9356;52.202;20.950;2022-11-20T03:34:46;-2.20;96.60
18454;DHT22;9356;52.202;20.950;2022-11-20T03:35:49;-2.40;96.70
18454;DHT22;9356;52.202;20.950;2022-11-20T03:36:54;-1.20;97.20
18454;DHT22;9356;52.202;20.950;2022-11-20T03:37:57;-2.40;97.10
18454;DHT22;9356;52.202;20.950;2022-11-20T03:39:00;-2.40;97.20
18454;DHT22;9356;52.202;20.950;2022-11-20T03:40:05;-2.40;97.20
18454;DHT22;9356;52.202;20.950;2022-11-20T03:41:10;-2.40;97.30
18454;DHT22;9356;52.202;20.950;2022-11-20T03:42:14;-0.60;97.90
18454;DHT22;9356;52.202;20.950;2022-11-20T03:43:35;-2.30;97.40
18454;DHT22;9356;52.202;20.950;2022-11-20T03:44:39;-2.50;97.40
18454;DHT22;9356;52.202;20.950;2022-11-20T03:45:42;-2.50;97.50
18454;DHT22;9356;52.202;20.950;2022-11-20T03:46:45;-2.50;97.70
18454;DHT22;9356;52.202;20.950;2022-11-20T03:47:48;-2.50;97.60
18454;DHT22;9356;52.202;20.950;2022-11-20T03:48:51;-2.60;97.60
18454;DHT22;9356;52.202;20.950;2022-11-20T03:49:54;-2.50;97.70
18454;DHT22;9356;52.202;20.950;2022-11-20T03:51:08;-2.50;97.80
18454;DHT22;9356;52.202;20.950;2022-11-20T03:52:13;-2.50;97.90
18454;DHT22;9356;52.202;20.950;2022-11-20T03:53:18;-2.60;97.90
18454;DHT22;9356;52.202;20.950;2022-11-20T03:54:20;-0.60;98.60
18454;DHT22;9356;52.202;20.950;2022-11-20T03:55:24;-2.60;97.90
18454;DHT22;9356;52.202;20.950;2022-11-20T03:56:28;-2.60;98.00
18454;DHT22;9356;52.202;20.950;2022-11-20T03:57:32;-2.60;98.10
18454;DHT22;9356;52.202;20.950;2022-11-20T03:58:37;-2.60;98.10
18454;DHT22;9356;52.202;20.950;2022-11-20T03:59:41;-2.70;98.10
18454;DHT22;9356;52.202;20.950;2022-11-20T04:00:44;-2.70;98.30
18454;DHT22;9356;52.202;20.950;2022-11-20T04:01:47;-2.60;98.30
18454;DHT22;9356;52.202;20.950;2022-11-20T04:02:50;-2.60;98.30
18454;DHT22;9356;52.202;20.950;2022-11-20T04:03:55;-2.70;98.30
18454;DHT22;9356;52.202;20.950;2022-11-20T04:04:58;-2.60;98.30
18454;DHT22;9356;52.202;20.950;2022-11-20T04:06:03;-2.60;98.40
18454;DHT22;9356;52.202;20.950;2022-11-20T04:07:06;-2.70;98.60
18454;DHT22;9356;52.202;20.950;2022-11-20T04:08:10;-2.70;98.60
18454;DHT22;9356;52.202;20.950;2022-11-20T04:09:13;-2.80;98.50
18454;DHT22;9356;52.202;20.950;2022-11-20T04:10:46;-2.90;98.60
18454;DHT22;9356;52.202;20.950;2022-11-20T04:11:50;-2.10;99.20
18454;DHT22;9356;52.202;20.950;2022-11-20T04:12:52;-3.00;99.00
18454;DHT22;9356;52.202;20.950;2022-11-20T04:14:01;-3.00;99.20
18454;DHT22;9356;52.202;20.950;2022-11-20T04:15:05;-3.10;99.20
18454;DHT22;9356;52.202;20.950;2022-11-20T04:16:09;-3.10;99.30
18454;DHT22;9356;52.202;20.950;2022-11-20T04:17:12;-3.00;99.40
18454;DHT22;9356;52.202;20.950;2022-11-20T04:18:15;-3.10;99.40
18454;DHT22;9356;52.202;20.950;2022-11-20T04:19:18;-3.00;99.40
18454;DHT22;9356;52.202;20.950;2022-11-20T04:20:22;-3.10;99.50
18454;DHT22;9356;52.202;20.950;2022-11-20T04:21:25;-3.00;99.50
18454;DHT22;9356;52.202;20.950;2022-11-20T04:22:29;-3.00;99.50
18454;DHT22;9356;52.202;20.950;2022-11-20T04:23:34;-3.10;99.50
18454;DHT22;9356;52.202;20.950;2022-11-20T04:24:37;-4.00;99.20
18454;DHT22;9356;52.202;20.950;2022-11-20T04:25:40;-3.10;99.60
18454;DHT22;9356;52.202;20.950;2022-11-20T04:26:43;-3.00;99.60
18454;DHT22;9356;52.202;20.950;2022-11-20T04:27:46;-3.00;99.70
18454;DHT22;9356;52.202;20.950;2022-11-20T04:28:49;-3.00;99.70
18454;DHT22;9356;52.202;20.950;2022-11-20T04:29:53;-2.70;99.70
18454;DHT22;9356;52.202;20.950;2022-11-20T04:31:03;-3.00;99.70
18454;DHT22;9356;52.202;20.950;2022-11-20T04:32:05;-3.10;99.70
18454;DHT22;9356;52.202;20.950;2022-11-20T04:33:09;-3.00;99.70
18454;DHT22;9356;52.202;20.950;2022-11-20T04:34:11;-3.10;99.70
18454;DHT22;9356;52.202;20.950;2022-11-20T04:35:17;-2.50;99.80
18454;DHT22;9356;52.202;20.950;2022-11-20T04:36:21;-3.10;99.70
18454;DHT22;9356;52.202;20.950;2022-11-20T04:37:27;-3.20;99.80
18454;DHT22;9356;52.202;20.950;2022-11-20T04:38:30;-3.30;99.90
18454;DHT22;9356;52.202;20.950;2022-11-20T04:39:33;-3.30;99.90
18454;DHT22;9356;52.202;20.950;2022-11-20T04:40:36;-3.30;99.90
18454;DHT22;9356;52.202;20.950;2022-11-20T04:41:39;-3.20;99.90
18454;DHT22;9356;52.202;20.950;2022-11-20T04:42:42;-3.30;99.90
18454;DHT22;9356;52.202;20.950;2022-11-20T04:43:47;-2.70;99.90
18454;DHT22;9356;52.202;20.950;2022-11-20T04:44:50;-3.20;99.90
18454;DHT22;9356;52.202;20.950;2022-11-20T04:45:56;-3.30;99.90
18454;DHT22;9356;52.202;20.950;2022-11-20T04:46:58;-3.20;99.90
18454;DHT22;9356;52.202;20.950;2022-11-20T04:48:02;-3.20;99.90
18454;DHT22;9356;52.202;20.950;2022-11-20T04:49:05;-3.20;99.90
18454;DHT22;9356;52.202;20.950;2022-11-20T04:50:09;-3.10;99.90
18454;DHT22;9356;52.202;20.950;2022-11-20T04:51:12;-3.10;99.90
18454;DHT22;9356;52.202;20.950;2022-11-20T04:52:15;-3.10;99.80
18454;DHT22;9356;52.202;20.950;2022-11-20T04:53:19;-3.00;99.70
18454;DHT22;9356;52.202;20.950;2022-11-20T04:54:23;-3.00;99.70
18454;DHT22;9356;52.202;20.950;2022-11-20T04:55:25;-3.00;99.60
18454;DHT22;9356;52.202;20.950;2022-11-20T04:56:29;-3.00;99.60
18454;DHT22;9356;52.202;20.950;2022-11-20T04:57:31;-3.00;99.50
18454;DHT22;9356;52.202;20.950;2022-11-20T04:58:35;-3.00;99.40
18454;DHT22;9356;52.202;20.950;2022-11-20T04:59:37;-3.00;99.30
18454;DHT22;9356;52.202;20.950;2022-11-20T05:00:41;-3.00;99.30
18454;DHT22;9356;52.202;20.950;2022-11-20T05:01:45;-3.00;99.40
18454;DHT22;9356;52.202;20.950;2022-11-20T05:02:48;-3.10;99.30
18454;DHT22;9356;52.202;20.950;2022-11-20T05:03:52;-3.10;99.40
18454;DHT22;9356;52.202;20.950;2022-11-20T05:04:56;-3.10;99.60
18454;DHT22;9356;52.202;20.950;2022-11-20T05:06:00;-3.00;99.70
18454;DHT22;9356;52.202;20.950;2022-11-20T05:07:04;-3.00;99.70
18454;DHT22;9356;52.202;20.950;2022-11-20T05:08:06;-3.00;99.60
18454;DHT22;9356;52.202;20.950;2022-11-20T05:09:09;-2.90;99.60
18454;DHT22;9356;52.202;20.950;2022-11-20T05:10:12;-4.20;99.10
18454;DHT22;9356;52.202;20.950;2022-11-20T05:11:18;-2.90;99.50
18454;DHT22;9356;52.202;20.950;2022-11-20T05:12:22;-2.60;99.50
18454;DHT22;9356;52.202;20.950;2022-11-20T05:13:26;-2.90;99.30
18454;DHT22;9356;52.202;20.950;2022-11-20T05:14:29;-2.70;99.20
18454;DHT22;9356;52.202;20.950;2022-11-20T05:15:33;-2.40;99.30
18454;DHT22;9356;52.202;20.950;2022-11-20T05:16:35;-2.90;99.20
18454;DHT22;9356;52.202;20.950;2022-11-20T05:17:40;-2.70;99.30
18454;DHT22;9356;52.202;20.950;2022-11-20T05:18:43;-2.90;99.30
18454;DHT22;9356;52.202;20.950;2022-11-20T05:19:46;-2.70;99.40
18454;DHT22;9356;52.202;20.950;2022-11-20T05:20:55;-0.80;99.90
18454;DHT22;9356;52.202;20.950;2022-11-20T05:21:59;-2.90;99.30
18454;DHT22;9356;52.202;20.950;2022-11-20T05:23:03;-2.90;99.20
18454;DHT22;9356;52.202;20.950;2022-11-20T05:24:06;-2.80;99.20
18454;DHT22;9356;52.202;20.950;2022-11-20T05:25:10;-2.80;99.10
18454;DHT22;9356;52.202;20.950;2022-11-20T05:26:16;-2.80;98.90
18454;DHT22;9356;52.202;20.950;2022-11-20T05:27:19;-2.90;98.80
18454;DHT22;9356;52.202;20.950;2022-11-20T05:28:23;-2.90;98.70
18454;DHT22;9356;52.202;20.950;2022-11-20T05:29:26;-2.90;98.80
18454;DHT22;9356;52.202;20.950;2022-11-20T05:30:29;-2.90;98.90
18454;DHT22;9356;52.202;20.950;2022-11-20T05:31:32;-2.90;98.90
18454;DHT22;9356;52.202;20.950;2022-11-20T05:32:36;-2.80;98.90
18454;DHT22;9356;52.202;20.950;2022-11-20T05:33:41;-2.80;98.90
18454;DHT22;9356;52.202;20.950;2022-11-20T05:34:45;-2.90;98.70
18454;DHT22;9356;52.202;20.950;2022-11-20T05:35:48;-2.80;98.90
18454;DHT22;9356;52.202;20.950;2022-11-20T05:36:52;-2.80;98.90
18454;DHT22;9356;52.202;20.950;2022-11-20T05:37:55;-2.70;98.90
18454;DHT22;9356;52.202;20.950;2022-11-20T05:38:58;-2.90;98.70
18454;DHT22;9356;52.202;20.950;2022-11-20T05:40:03;-2.90;98.70
18454;DHT22;9356;52.202;20.950;2022-11-20T05:41:07;-2.80;98.80
18454;DHT22;9356;52.202;20.950;2022-11-20T05:42:11;-3.50;98.50
18454;DHT22;9356;52.202;20.950;2022-11-20T05:43:32;-2.80;98.70
18454;DHT22;9356;52.202;20.950;2022-11-20T05:44:37;-2.80;98.60
18454;DHT22;9356;52.202;20.950;2022-11-20T05:45:39;-2.10;98.90
18454;DHT22;9356;52.202;20.950;2022-11-20T05:46:42;-2.80;98.80
18454;DHT22;9356;52.202;20.950;2022-11-20T05:47:45;-2.90;98.80
18454;DHT22;9356;52.202;20.950;2022-11-20T05:48:50;-2.80;98.90
18454;DHT22;9356;52.202;20.950;2022-11-20T05:49:53;-1.00;99.40
18454;DHT22;9356;52.202;20.950;2022-11-20T05:50:57;-2.90;98.80
18454;DHT22;9356;52.202;20.950;2022-11-20T05:51:59;-2.80;98.80
18454;DHT22;9356;52.202;20.950;2022-11-20T05:53:03;-2.90;98.80
18454;DHT22;9356;52.202;20.950;2022-11-20T05:54:05;-1.60;99.20
18454;DHT22;9356;52.202;20.950;2022-11-20T05:55:08;-2.90;98.80
18454;DHT22;9356;52.202;20.950;2022-11-20T05:56:13;-4.20;98.40
18454;DHT22;9356;52.202;20.950;2022-11-20T05:57:17;-2.80;98.80
18454;DHT22;9356;52.202;20.950;2022-11-20T05:58:19;-2.80;98.80
18454;DHT22;9356;52.202;20.950;2022-11-20T05:59:23;-2.90;98.60
18454;DHT22;9356;52.202;20.950;2022-11-20T06:00:26;-2.80;98.60
18454;DHT22;9356;52.202;20.950;2022-11-20T06:01:28;-2.90;98.70
18454;DHT22;9356;52.202;20.950;2022-11-20T06:02:34;-2.90;98.70
18454;DHT22;9356;52.202;20.950;2022-11-20T06:03:38;-2.90;98.70
18454;DHT22;9356;52.202;20.950;2022-11-20T06:04:43;-2.40;98.80
18454;DHT22;9356;52.202;20.950;2022-11-20T06:05:45;-2.80;98.60
18454;DHT22;9356;52.202;20.950;2022-11-20T06:06:49;-2.80;98.60
18454;DHT22;9356;52.202;20.950;2022-11-20T06:07:51;-0.70;99.20
18454;DHT22;9356;52.202;20.950;2022-11-20T06:08:55;-2.80;98.50
18454;DHT22;9356;52.202;20.950;2022-11-20T06:09:58;-2.80;98.40
18454;DHT22;9356;52.202;20.950;2022-11-20T06:11:04;-2.70;98.40
18454;DHT22;9356;52.202;20.950;2022-11-20T06:12:06;-2.20;98.50
18454;DHT22;9356;52.202;20.950;2022-11-20T06:13:10;-2.70;98.30
18454;DHT22;9356;52.202;20.950;2022-11-20T06:14:13;-2.70;98.10
18454;DHT22;9356;52.202;20.950;2022-11-20T06:15:17;-4.00;97.70
18454;DHT22;9356;52.202;20.950;2022-11-20T06:16:21;-2.70;97.80
18454;DHT22;9356;52.202;20.950;2022-11-20T06:17:25;-2.70;98.00
18454;DHT22;9356;52.202;20.950;2022-11-20T06:18:28;-2.60;97.90
18454;DHT22;9356;52.202;20.950;2022-11-20T06:19:32;-2.70;97.90
18454;DHT22;9356;52.202;20.950;2022-11-20T06:20:37;-2.70;98.00
18454;DHT22;9356;52.202;20.950;2022-11-20T06:21:43;-2.70;98.10
18454;DHT22;9356;52.202;20.950;2022-11-20T06:22:46;-2.80;98.10
18454;DHT22;9356;52.202;20.950;2022-11-20T06:23:50;-2.70;98.00
18454;DHT22;9356;52.202;20.950;2022-11-20T06:24:56;-2.70;98.10
18454;DHT22;9356;52.202;20.950;2022-11-20T06:26:02;-2.70;98.20
18454;DHT22;9356;52.202;20.950;2022-11-20T06:27:04;-2.60;98.20
18454;DHT22;9356;52.202;20.950;2022-11-20T06:28:09;-2.60;98.20
18454;DHT22;9356;52.202;20.950;2022-11-20T06:29:11;-2.60;98.20
18454;DHT22;9356;52.202;20.950;2022-11-20T06:30:15;-2.50;98.10
18454;DHT22;9356;52.202;20.950;2022-11-20T06:31:19;-2.50;98.10
18454;DHT22;9356;52.202;20.950;2022-11-20T06:32:23;-2.50;97.90
18454;DHT22;9356;52.202;20.950;2022-11-20T06:33:26;-1.90;98.00
18454;DHT22;9356;52.202;20.950;2022-11-20T06:34:30;-2.40;97.80
18454;DHT22;9356;52.202;20.950;2022-11-20T06:35:32;-0.50;98.20
18454;DHT22;9356;52.202;20.950;2022-11-20T06:36:37;-2.20;97.70
18454;DHT22;9356;52.202;20.950;2022-11-20T06:37:40;-2.20;97.50
18454;DHT22;9356;52.202;20.950;2022-11-20T06:38:43;-2.20;97.50
18454;DHT22;9356;52.202;20.950;2022-11-20T06:39:46;-2.20;97.40
18454;DHT22;9356;52.202;20.950;2022-11-20T06:40:50;0.50;98.20
18454;DHT22;9356;52.202;20.950;2022-11-20T06:41:52;-2.10;97.30
18454;DHT22;9356;52.202;20.950;2022-11-20T06:43:00;-2.00;97.20
18454;DHT22;9356;52.202;20.950;2022-11-20T06:44:03;-2.00;97.10
18454;DHT22;9356;52.202;20.950;2022-11-20T06:45:08;-1.90;97.10
18454;DHT22;9356;52.202;20.950;2022-11-20T06:46:13;-1.90;96.90
18454;DHT22;9356;52.202;20.950;2022-11-20T06:47:16;-1.80;97.00
18454;DHT22;9356;52.202;20.950;2022-11-20T06:48:19;-1.70;96.90
18454;DHT22;9356;52.202;20.950;2022-11-20T06:49:22;-1.60;97.10